Wilson Corner, South Dakota
Current Conditions -  °F | °C
As of 2:53 AM on Sunday 21 Dec 2014 (Local Time) from KHEI Reporting Station
Scattered Clouds Scattered Clouds  
Wind Chill: 25°   Ceiling: Unl
Heat Index: 25°   Visibility: 10mi
Dew Point: 21°   Wind: 0mph
Humidity: 85%   Direction: NA
Pressure: 29.66"   Gusts: NA
Location:  45.8748°N, 103.314°W
Report Text: KHEI 210953Z AUTO 00000KT 10SM FEW080 SCT110 M04/M06 A2966 RMK AO2 SLP064 T10391061
Loading
Personal Weather Stations






























Interactive Weather Map New forecast layout! Learn more

10-Day Weather Forecast

Advertisements
Track Severe Weather on mobile